createdAt,value
2023-01-19T00:00:29.734Z,92.42
2023-01-19T00:02:56.211Z,92.44
2023-01-19T00:05:22.633Z,91.85
2023-01-19T00:07:49.065Z,92.56
2023-01-19T00:10:15.895Z,92.28
2023-01-19T00:12:42.390Z,92.02
2023-01-19T00:15:09.468Z,92.29
2023-01-19T00:17:36.085Z,92.26
2023-01-19T00:20:03.890Z,91.95
2023-01-19T00:22:30.364Z,92.28
2023-01-19T00:24:56.780Z,92.55
2023-01-19T00:27:23.356Z,92.89
2023-01-19T00:29:49.826Z,92.31
2023-01-19T00:32:17.786Z,91.97
2023-01-19T00:34:49.435Z,91.73
2023-01-19T00:37:17.293Z,90.85
2023-01-19T00:39:43.868Z,90.67
2023-01-19T00:42:32.192Z,90.82
2023-01-19T00:44:58.701Z,90.76
2023-01-19T00:47:25.346Z,90.58
2023-01-19T00:49:51.769Z,90.51
2023-01-19T00:52:18.129Z,90.67
2023-01-19T00:54:44.527Z,90.73
2023-01-19T00:57:10.933Z,91.09
2023-01-19T00:59:37.319Z,90.55
2023-01-19T01:02:03.933Z,90.86
2023-01-19T01:04:30.749Z,91.34
2023-01-19T01:06:57.274Z,91.75
2023-01-19T01:09:24.265Z,91.23
2023-01-19T01:11:50.691Z,91.93
2023-01-19T01:14:18.183Z,91.79
2023-01-19T01:16:44.718Z,91.69
2023-01-19T01:19:11.142Z,92.49
2023-01-19T01:21:37.501Z,91.85
2023-01-19T01:24:04.273Z,91.95
2023-01-19T01:26:30.833Z,92.08
2023-01-19T01:28:57.269Z,91.95
2023-01-19T01:31:23.714Z,92.00
2023-01-19T01:33:50.477Z,91.19
2023-01-19T01:36:18.933Z,91.77
2023-01-19T01:38:45.414Z,91.64
2023-01-19T01:41:12.157Z,91.44
2023-01-19T01:43:45.132Z,92.05
2023-01-19T01:46:12.258Z,91.59
2023-01-19T01:48:40.465Z,91.95
2023-01-19T01:51:25.090Z,92.08
2023-01-19T01:54:07.149Z,92.00
2023-01-19T01:56:40.193Z,91.92
2023-01-19T01:59:11.297Z,91.76
2023-01-19T02:01:56.721Z,92.60
2023-01-19T02:04:24.009Z,92.58
2023-01-19T02:07:09.782Z,92.36
2023-01-19T02:09:56.175Z,92.87
2023-01-19T02:12:42.003Z,92.96
2023-01-19T02:15:17.007Z,93.08
2023-01-19T02:17:43.430Z,92.87
2023-01-19T02:20:11.104Z,92.95
2023-01-19T02:22:46.539Z,93.41
2023-01-19T02:25:13.436Z,93.37
2023-01-19T02:27:39.872Z,93.57
2023-01-19T02:30:07.914Z,93.73
2023-01-19T02:32:34.266Z,93.91
2023-01-19T02:35:00.868Z,93.92
2023-01-19T02:37:31.126Z,93.51
2023-01-19T02:40:01.569Z,93.94
2023-01-19T02:42:37.323Z,94.95
2023-01-19T02:45:06.781Z,94.64
2023-01-19T02:47:40.671Z,94.57
2023-01-19T02:50:39.065Z,94.61
2023-01-19T02:53:24.955Z,93.91
2023-01-19T02:56:03.309Z,94.43
2023-01-19T02:58:53.756Z,94.03
2023-01-19T03:01:38.785Z,94.24
2023-01-19T03:04:42.725Z,93.90
2023-01-19T03:07:23.320Z,93.37
2023-01-19T03:09:58.524Z,93.37
2023-01-19T03:12:46.860Z,93.97
2023-01-19T03:15:43.118Z,94.06
2023-01-19T03:18:12.419Z,93.49
2023-01-19T03:20:40.185Z,93.53
2023-01-19T03:23:10.522Z,93.35
2023-01-19T03:25:39.770Z,93.36
2023-01-19T03:28:06.233Z,93.71
2023-01-19T03:30:39.287Z,93.22
2023-01-19T03:33:14.639Z,93.76
2023-01-19T03:35:45.887Z,93.12
2023-01-19T03:38:15.934Z,93.03
2023-01-19T03:40:43.567Z,93.11
2023-01-19T03:43:10.828Z,93.01
2023-01-19T03:45:39.244Z,92.55
2023-01-19T03:48:06.484Z,92.90
2023-01-19T03:50:32.860Z,92.69
2023-01-19T03:53:06.007Z,92.48
2023-01-19T03:55:32.860Z,93.07
2023-01-19T03:57:59.204Z,92.96
2023-01-19T04:00:26.078Z,93.07
2023-01-19T04:02:52.600Z,92.86
2023-01-19T04:05:19.237Z,93.23
2023-01-19T04:07:48.731Z,93.26
2023-01-19T04:10:17.067Z,92.76
2023-01-19T04:12:43.378Z,93.11
2023-01-19T04:15:09.807Z,93.09
2023-01-19T04:17:36.265Z,92.94
2023-01-19T04:20:02.646Z,92.86
2023-01-19T04:22:29.505Z,93.11
2023-01-19T04:24:56.190Z,92.48
2023-01-19T04:27:22.823Z,92.57
2023-01-19T04:29:49.242Z,92.34
2023-01-19T04:32:15.683Z,92.66
2023-01-19T04:34:42.025Z,92.35
2023-01-19T04:37:11.060Z,92.33
2023-01-19T04:39:37.374Z,92.56
2023-01-19T04:42:03.855Z,92.34
2023-01-19T04:44:30.151Z,92.75
2023-01-19T04:46:56.506Z,92.59
2023-01-19T04:49:22.836Z,92.19
2023-01-19T04:51:49.394Z,92.60
2023-01-19T04:54:15.835Z,92.44
2023-01-19T04:56:42.192Z,92.75
2023-01-19T04:59:08.576Z,92.51
2023-01-19T05:01:35.311Z,92.07
2023-01-19T05:04:03.671Z,92.13
2023-01-19T05:06:30.016Z,92.43
2023-01-19T05:08:56.431Z,92.46
2023-01-19T05:11:22.889Z,92.50
2023-01-19T05:13:50.930Z,92.50
2023-01-19T05:16:17.885Z,92.58
2023-01-19T05:18:44.340Z,92.61
2023-01-19T05:21:10.764Z,92.27
2023-01-19T05:23:37.127Z,92.80
2023-01-19T05:26:03.695Z,92.28
2023-01-19T05:28:31.917Z,92.97
2023-01-19T05:30:58.746Z,92.74
2023-01-19T05:33:26.020Z,93.05
2023-01-19T05:35:54.136Z,92.33
2023-01-19T05:38:34.334Z,93.29
2023-01-19T05:41:02.404Z,92.63
2023-01-19T05:43:28.760Z,92.88
2023-01-19T05:45:55.111Z,92.86
2023-01-19T05:48:21.719Z,92.91
2023-01-19T05:50:49.480Z,92.67
2023-01-19T05:53:17.147Z,92.94
2023-01-19T05:55:43.700Z,93.23
2023-01-19T05:58:10.126Z,92.71
2023-01-19T06:00:36.599Z,92.69
2023-01-19T06:03:03.497Z,92.67
2023-01-19T06:05:30.298Z,92.98
2023-01-19T06:07:57.088Z,93.22
2023-01-19T06:10:23.659Z,92.88
2023-01-19T06:12:51.668Z,93.61
2023-01-19T06:15:18.607Z,93.54
2023-01-19T06:17:45.012Z,93.02
2023-01-19T06:20:13.947Z,93.32
2023-01-19T06:22:40.459Z,93.28
2023-01-19T06:25:07.092Z,93.20
2023-01-19T06:27:33.407Z,93.04
2023-01-19T06:29:59.793Z,92.64
2023-01-19T06:32:26.181Z,93.02
2023-01-19T06:34:54.012Z,93.50
2023-01-19T06:37:20.552Z,93.01
2023-01-19T06:39:46.909Z,93.29
2023-01-19T06:42:13.343Z,93.35
2023-01-19T06:44:47.143Z,92.98
2023-01-19T06:47:16.352Z,93.34
2023-01-19T06:49:43.065Z,93.90
2023-01-19T06:52:11.316Z,93.65
2023-01-19T06:54:37.659Z,93.65
2023-01-19T06:57:04.366Z,93.47
2023-01-19T06:59:31.697Z,93.25
2023-01-19T07:01:58.979Z,93.01
2023-01-19T07:04:26.984Z,93.67
2023-01-19T07:06:53.390Z,93.14
2023-01-19T07:09:20.508Z,93.20
2023-01-19T07:11:48.337Z,93.63
2023-01-19T07:14:15.557Z,93.44
2023-01-19T07:16:42.192Z,93.61
2023-01-19T07:19:10.633Z,93.36
2023-01-19T07:21:37.192Z,93.04
2023-01-19T07:24:03.655Z,92.89
2023-01-19T07:26:30.868Z,92.83
2023-01-19T07:28:57.305Z,92.68
2023-01-19T07:31:23.763Z,92.70
2023-01-19T07:33:50.252Z,92.67
2023-01-19T07:36:16.599Z,92.49
2023-01-19T07:38:42.972Z,91.99
2023-01-19T07:41:10.708Z,92.42
2023-01-19T07:43:37.103Z,92.19
2023-01-19T07:46:05.229Z,92.19
2023-01-19T07:48:31.759Z,91.80
2023-01-19T07:51:05.570Z,92.93
2023-01-19T07:53:32.739Z,92.17
2023-01-19T07:55:59.122Z,92.32
2023-01-19T07:58:26.445Z,92.73
2023-01-19T08:00:53.040Z,92.19
2023-01-19T08:03:19.513Z,92.55
2023-01-19T08:05:50.627Z,91.93
2023-01-19T08:08:17.268Z,91.99
2023-01-19T08:10:43.763Z,91.55
2023-01-19T08:13:10.155Z,92.05
2023-01-19T08:15:36.584Z,91.88
2023-01-19T08:18:05.666Z,91.75
2023-01-19T08:20:32.340Z,92.24
2023-01-19T08:23:02.859Z,92.21
2023-01-19T08:25:44.499Z,92.07
2023-01-19T08:28:13.124Z,91.51
2023-01-19T08:30:40.652Z,92.08
2023-01-19T08:33:09.841Z,91.04
2023-01-19T08:35:42.080Z,91.17
2023-01-19T08:38:09.543Z,91.25
2023-01-19T08:40:38.413Z,91.42
2023-01-19T08:43:07.888Z,91.62
2023-01-19T08:45:48.082Z,90.78
2023-01-19T08:48:16.413Z,91.47
2023-01-19T08:50:45.331Z,91.24
2023-01-19T08:53:11.720Z,91.48
2023-01-19T08:55:38.189Z,91.39
2023-01-19T08:58:05.876Z,91.56
2023-01-19T09:00:37.968Z,91.41
2023-01-19T09:03:06.456Z,92.04
2023-01-19T09:05:37.130Z,91.41
2023-01-19T09:08:06.332Z,92.19
2023-01-19T09:10:35.877Z,91.65
2023-01-19T09:13:04.962Z,91.81
2023-01-19T09:15:35.648Z,91.87
2023-01-19T09:18:03.295Z,91.39
2023-01-19T09:20:31.256Z,91.86
2023-01-19T09:22:58.370Z,91.24
2023-01-19T09:25:25.523Z,90.98
2023-01-19T09:27:52.349Z,91.33
2023-01-19T09:30:19.448Z,91.01
2023-01-19T09:32:46.278Z,90.10
2023-01-19T09:35:13.047Z,90.74
2023-01-19T09:37:39.750Z,90.24
2023-01-19T09:40:06.719Z,90.67
2023-01-19T09:42:43.826Z,90.43
2023-01-19T09:45:29.309Z,90.32
2023-01-19T09:47:58.457Z,89.93
2023-01-19T09:50:30.524Z,89.42
2023-01-19T09:53:14.055Z,90.13
2023-01-19T09:55:42.529Z,89.82
2023-01-19T09:58:16.560Z,89.61
2023-01-19T10:00:47.786Z,89.55
2023-01-19T10:03:17.823Z,89.72
2023-01-19T10:06:03.675Z,89.18
2023-01-19T10:09:05.299Z,89.62
2023-01-19T10:11:51.461Z,89.85
2023-01-19T10:14:27.491Z,89.26
2023-01-19T10:17:03.327Z,89.04
2023-01-19T10:19:37.760Z,88.62
2023-01-19T10:22:23.143Z,88.59
2023-01-19T10:24:56.479Z,87.85
2023-01-19T10:27:35.089Z,87.66
2023-01-19T10:30:02.133Z,86.97
2023-01-19T10:32:35.701Z,86.01
2023-01-19T10:35:23.388Z,85.59
2023-01-19T10:37:56.236Z,85.69
2023-01-19T10:40:34.762Z,85.17
2023-01-19T10:43:01.680Z,84.50
2023-01-19T10:45:31.324Z,85.05
2023-01-19T10:48:04.493Z,85.33
2023-01-19T10:50:37.408Z,84.23
2023-01-19T10:53:05.944Z,84.31
2023-01-19T10:55:38.125Z,83.70
2023-01-19T10:58:06.387Z,83.80
2023-01-19T11:00:43.047Z,84.03
2023-01-19T11:03:29.784Z,82.44
2023-01-19T11:06:20.512Z,81.98
2023-01-19T11:08:50.184Z,82.47
2023-01-19T11:11:18.321Z,82.08
2023-01-19T11:13:45.411Z,81.39
2023-01-19T11:16:30.698Z,81.28
2023-01-19T11:18:58.291Z,79.90
2023-01-19T11:21:26.893Z,80.38
2023-01-19T11:24:02.254Z,79.37
2023-01-19T11:26:44.328Z,78.51
2023-01-19T11:29:26.485Z,77.26
2023-01-19T11:31:54.957Z,77.91
2023-01-19T11:34:31.474Z,77.45
2023-01-19T11:37:03.410Z,77.44
2023-01-19T11:39:32.392Z,77.36
2023-01-19T11:42:02.073Z,77.97
2023-01-19T11:44:39.090Z,77.59
2023-01-19T11:47:14.480Z,78.22
2023-01-19T11:50:01.526Z,78.11
2023-01-19T11:52:58.660Z,77.71
2023-01-19T11:55:46.930Z,77.85
2023-01-19T11:58:16.239Z,77.64
2023-01-19T12:00:46.279Z,77.60
2023-01-19T12:03:20.701Z,76.98
2023-01-19T12:05:51.509Z,77.67
2023-01-19T12:08:26.870Z,77.18
2023-01-19T12:10:57.220Z,76.55
2023-01-19T12:13:26.525Z,76.23
2023-01-19T12:16:24.461Z,75.98
2023-01-19T12:19:25.113Z,76.04
2023-01-19T12:21:52.538Z,76.18
2023-01-19T12:24:36.507Z,75.32
2023-01-19T12:27:18.244Z,74.74
2023-01-19T12:29:46.368Z,74.42
2023-01-19T12:32:18.517Z,74.18
2023-01-19T12:34:49.263Z,73.58
2023-01-19T12:37:28.727Z,73.22
2023-01-19T12:39:57.141Z,73.64
2023-01-19T12:42:24.590Z,73.86
2023-01-19T12:45:06.625Z,73.26
2023-01-19T12:47:34.173Z,72.48
2023-01-19T12:50:07.527Z,73.06
2023-01-19T12:52:51.304Z,73.08
2023-01-19T12:55:38.933Z,73.99
2023-01-19T12:58:18.507Z,73.12
2023-01-19T13:00:47.109Z,72.41
2023-01-19T13:03:17.343Z,72.94
2023-01-19T13:05:43.673Z,73.09
2023-01-19T13:08:09.996Z,72.90
2023-01-19T13:11:10.691Z,72.06
2023-01-19T13:13:43.845Z,71.57
2023-01-19T13:16:19.508Z,71.92
2023-01-19T13:18:48.424Z,71.84
2023-01-19T13:21:27.560Z,71.43
2023-01-19T13:23:59.174Z,70.97
2023-01-19T13:26:28.773Z,70.64
2023-01-19T13:29:02.668Z,70.84
2023-01-19T13:31:35.651Z,69.98
2023-01-19T13:34:03.958Z,68.73
2023-01-19T13:36:42.260Z,68.24
2023-01-19T13:39:23.936Z,68.84
2023-01-19T13:41:54.075Z,68.49
2023-01-19T13:44:23.654Z,68.02
2023-01-19T13:46:51.873Z,68.67
2023-01-19T13:49:24.326Z,68.75
2023-01-19T13:52:12.723Z,69.09
2023-01-19T13:55:03.517Z,68.16
2023-01-19T13:57:40.097Z,68.59
2023-01-19T14:00:11.801Z,69.23
2023-01-19T14:02:50.602Z,68.59
2023-01-19T14:05:29.868Z,67.82
2023-01-19T14:08:08.337Z,67.80
2023-01-19T14:10:37.375Z,68.19
2023-01-19T14:13:15.453Z,68.33
2023-01-19T14:15:42.894Z,68.35
2023-01-19T14:18:16.218Z,68.93
2023-01-19T14:20:57.254Z,69.06
2023-01-19T14:23:45.449Z,69.10
2023-01-19T14:26:40.111Z,69.14
2023-01-19T14:29:21.460Z,69.74
2023-01-19T14:32:01.152Z,69.06
2023-01-19T14:34:41.339Z,69.46
2023-01-19T14:37:26.435Z,69.27
2023-01-19T14:39:58.164Z,70.00
2023-01-19T14:42:28.439Z,69.09
2023-01-19T14:44:56.969Z,69.40
2023-01-19T14:47:38.965Z,69.74
2023-01-19T14:50:10.367Z,69.94
2023-01-19T14:52:40.901Z,69.99
2023-01-19T14:55:19.899Z,69.02
2023-01-19T14:57:46.207Z,69.69
2023-01-19T15:00:17.354Z,69.04
2023-01-19T15:02:45.024Z,68.73
2023-01-19T15:05:11.604Z,69.37
2023-01-19T15:07:40.390Z,69.45
2023-01-19T15:10:17.445Z,69.48
2023-01-19T15:12:44.120Z,68.46
2023-01-19T15:15:16.066Z,67.93
2023-01-19T15:17:42.811Z,67.02
2023-01-19T15:20:15.884Z,68.06
2023-01-19T15:22:42.387Z,68.27
2023-01-19T15:25:12.497Z,68.11
2023-01-19T15:27:39.005Z,68.44
2023-01-19T15:30:14.067Z,68.67
2023-01-19T15:32:43.717Z,67.54
2023-01-19T15:35:18.960Z,68.31
2023-01-19T15:37:46.023Z,68.09
2023-01-19T15:40:13.224Z,67.93
2023-01-19T15:42:39.861Z,68.62
2023-01-19T15:45:27.829Z,68.10
2023-01-19T15:47:54.196Z,69.22
2023-01-19T15:50:20.532Z,69.49
2023-01-19T15:52:46.960Z,70.32
2023-01-19T15:55:15.799Z,71.83
2023-01-19T15:57:42.160Z,72.59
2023-01-19T16:00:09.701Z,73.11
2023-01-19T16:02:37.031Z,73.15
2023-01-19T16:05:03.782Z,74.08
2023-01-19T16:07:30.143Z,73.97
2023-01-19T16:09:56.550Z,74.90
2023-01-19T16:12:22.976Z,74.68
2023-01-19T16:14:49.381Z,75.20
2023-01-19T16:17:15.733Z,75.12
2023-01-19T16:19:42.046Z,75.42
2023-01-19T16:22:10.970Z,75.53
2023-01-19T16:24:37.389Z,75.79
2023-01-19T16:27:03.988Z,76.19
2023-01-19T16:29:31.020Z,76.64
2023-01-19T16:31:57.478Z,76.35
2023-01-19T16:34:25.336Z,77.13
2023-01-19T16:36:52.085Z,77.06
2023-01-19T16:39:18.470Z,77.22
2023-01-19T16:41:45.263Z,76.89
2023-01-19T16:44:13.625Z,77.50
2023-01-19T16:46:42.364Z,77.17
2023-01-19T16:49:21.020Z,77.64
2023-01-19T16:51:48.056Z,77.13
2023-01-19T16:54:16.672Z,76.64
2023-01-19T16:56:43.245Z,77.24
2023-01-19T16:59:12.274Z,77.11
2023-01-19T17:01:38.934Z,77.57
2023-01-19T17:04:05.457Z,77.50
2023-01-19T17:06:32.211Z,77.62
2023-01-19T17:08:59.265Z,78.24
2023-01-19T17:11:28.336Z,78.21
2023-01-19T17:13:57.199Z,77.89
2023-01-19T17:16:25.045Z,77.71
2023-01-19T17:18:51.671Z,78.12
2023-01-19T17:21:19.405Z,77.56
2023-01-19T17:23:47.993Z,77.84
2023-01-19T17:26:15.507Z,78.05
2023-01-19T17:28:42.138Z,77.70
2023-01-19T17:31:15.837Z,78.42
2023-01-19T17:33:46.686Z,78.35
2023-01-19T17:36:16.008Z,78.21
2023-01-19T17:38:42.788Z,78.01
2023-01-19T17:41:16.348Z,78.02
2023-01-19T17:43:43.685Z,77.67
2023-01-19T17:46:11.257Z,78.26
2023-01-19T17:48:38.608Z,78.56
2023-01-19T17:51:07.640Z,78.96
2023-01-19T17:53:35.693Z,77.99
2023-01-19T17:56:03.850Z,78.64
2023-01-19T17:58:31.345Z,78.67
2023-01-19T18:00:58.275Z,78.82
2023-01-19T18:03:24.946Z,78.26
2023-01-19T18:05:55.511Z,78.52
2023-01-19T18:08:22.203Z,77.73
2023-01-19T18:10:59.645Z,77.68
2023-01-19T18:13:26.215Z,78.28
2023-01-19T18:15:58.935Z,77.95
2023-01-19T18:18:25.987Z,78.28
2023-01-19T18:20:52.354Z,77.95
2023-01-19T18:23:18.706Z,77.97
2023-01-19T18:25:45.036Z,77.83
2023-01-19T18:28:11.367Z,78.02
2023-01-19T18:30:37.968Z,78.28
2023-01-19T18:33:04.427Z,77.59
2023-01-19T18:35:30.805Z,78.12
2023-01-19T18:37:58.432Z,78.16
2023-01-19T18:40:25.304Z,78.14
2023-01-19T18:42:51.665Z,78.67
2023-01-19T18:45:18.075Z,78.76
2023-01-19T18:47:44.468Z,78.79
2023-01-19T18:50:13.971Z,78.73
2023-01-19T18:52:40.495Z,79.02
2023-01-19T18:55:07.108Z,78.53
2023-01-19T18:57:35.663Z,79.33
2023-01-19T19:00:03.516Z,78.72
2023-01-19T19:02:29.967Z,78.95
2023-01-19T19:04:56.317Z,79.67
2023-01-19T19:07:22.693Z,79.67
2023-01-19T19:09:49.043Z,79.56
2023-01-19T19:12:15.385Z,79.16
2023-01-19T19:14:41.865Z,79.49
2023-01-19T19:17:08.245Z,79.68
2023-01-19T19:19:34.747Z,79.24
2023-01-19T19:22:01.222Z,79.29
2023-01-19T19:24:27.609Z,79.14
2023-01-19T19:26:53.971Z,79.30
2023-01-19T19:29:20.345Z,79.18
2023-01-19T19:31:46.850Z,79.97
2023-01-19T19:34:13.384Z,80.04
2023-01-19T19:36:40.029Z,79.82
2023-01-19T19:39:06.451Z,79.87
2023-01-19T19:41:32.775Z,80.25
2023-01-19T19:43:59.453Z,80.19
2023-01-19T19:46:26.696Z,80.19
2023-01-19T19:48:54.073Z,79.79
2023-01-19T19:51:27.030Z,79.90
2023-01-19T19:54:01.267Z,80.77
2023-01-19T19:56:30.444Z,80.28
2023-01-19T19:58:58.912Z,81.01
2023-01-19T20:01:33.567Z,81.29
2023-01-19T20:04:06.763Z,82.07
2023-01-19T20:06:38.468Z,82.75
2023-01-19T20:09:06.546Z,82.92
2023-01-19T20:11:33.328Z,83.20
2023-01-19T20:13:59.919Z,83.64
2023-01-19T20:16:26.442Z,83.31
2023-01-19T20:18:54.881Z,83.51
2023-01-19T20:21:30.740Z,84.09
2023-01-19T20:24:00.992Z,84.25
2023-01-19T20:26:31.754Z,83.80
2023-01-19T20:29:00.300Z,84.24
2023-01-19T20:31:32.934Z,84.43
2023-01-19T20:34:01.001Z,84.83
2023-01-19T20:36:28.778Z,84.79
2023-01-19T20:38:56.339Z,84.64
2023-01-19T20:41:24.218Z,85.10
2023-01-19T20:43:51.382Z,85.19
2023-01-19T20:46:18.367Z,85.49
2023-01-19T20:48:50.561Z,86.03
2023-01-19T20:51:18.118Z,85.92
2023-01-19T20:53:44.569Z,86.07
2023-01-19T20:56:12.813Z,85.66
2023-01-19T20:58:40.087Z,85.83
2023-01-19T21:01:18.847Z,86.33
2023-01-19T21:03:45.442Z,86.13
2023-01-19T21:06:12.347Z,86.27
2023-01-19T21:08:39.317Z,86.17
2023-01-19T21:11:06.773Z,85.96
2023-01-19T21:13:34.506Z,85.64
2023-01-19T21:16:01.279Z,86.29
2023-01-19T21:18:27.901Z,85.93
2023-01-19T21:20:57.539Z,85.28
2023-01-19T21:23:27.856Z,85.79
2023-01-19T21:25:57.398Z,86.21
2023-01-19T21:28:23.890Z,86.16
2023-01-19T21:30:51.802Z,85.69
2023-01-19T21:33:19.038Z,85.99
2023-01-19T21:35:55.647Z,86.26
2023-01-19T21:38:23.373Z,85.90
2023-01-19T21:40:52.638Z,86.49
2023-01-19T21:43:20.403Z,85.94
2023-01-19T21:45:47.672Z,86.10
2023-01-19T21:48:14.964Z,85.58
2023-01-19T21:50:41.351Z,86.18
2023-01-19T21:53:10.457Z,85.90
2023-01-19T21:55:37.682Z,85.54
2023-01-19T21:58:04.735Z,85.83
2023-01-19T22:00:31.647Z,85.65
2023-01-19T22:03:03.830Z,85.27
2023-01-19T22:05:36.541Z,85.19
2023-01-19T22:08:03.853Z,86.00
2023-01-19T22:10:30.237Z,85.41
2023-01-19T22:12:56.629Z,85.89
2023-01-19T22:15:22.997Z,85.93
2023-01-19T22:17:49.357Z,85.14
2023-01-19T22:20:15.884Z,85.80
2023-01-19T22:22:42.199Z,86.01
2023-01-19T22:25:08.961Z,85.97
2023-01-19T22:27:37.270Z,85.69
2023-01-19T22:30:03.809Z,86.18
2023-01-19T22:32:31.368Z,86.45
2023-01-19T22:34:57.769Z,86.64
2023-01-19T22:37:24.222Z,86.34
2023-01-19T22:39:50.667Z,86.74
2023-01-19T22:42:17.101Z,87.17
2023-01-19T22:44:43.521Z,86.81
2023-01-19T22:47:10.073Z,87.25
2023-01-19T22:49:36.456Z,87.06
2023-01-19T22:52:02.836Z,86.89
2023-01-19T22:54:29.901Z,87.13
2023-01-19T22:56:56.287Z,87.26
2023-01-19T22:59:22.666Z,86.50
2023-01-19T23:01:49.290Z,86.56
2023-01-19T23:04:16.087Z,86.73
2023-01-19T23:06:43.239Z,86.85
2023-01-19T23:09:14.441Z,86.50
2023-01-19T23:11:43.983Z,87.02
2023-01-19T23:14:16.284Z,87.00
2023-01-19T23:16:42.655Z,86.96
2023-01-19T23:19:11.793Z,86.67
2023-01-19T23:21:38.168Z,86.78
2023-01-19T23:24:05.030Z,86.77
2023-01-19T23:26:37.768Z,87.29
2023-01-19T23:29:07.237Z,87.06
2023-01-19T23:31:36.179Z,87.32
2023-01-19T23:34:05.668Z,87.31
2023-01-19T23:36:33.870Z,87.10
2023-01-19T23:39:26.601Z,87.03
2023-01-19T23:41:52.989Z,86.54
2023-01-19T23:44:19.531Z,86.74
2023-01-19T23:46:46.491Z,86.98
2023-01-19T23:49:13.376Z,87.12
2023-01-19T23:51:40.836Z,87.02
2023-01-19T23:54:07.477Z,86.21
2023-01-19T23:56:36.437Z,86.40
2023-01-19T23:59:14.302Z,86.75
